createdAt,value
2019-05-06T00:00:59.718Z,13.51
2019-05-06T00:06:03.825Z,13.26
2019-05-06T00:11:05.782Z,13.24
2019-05-06T00:16:07.659Z,13.24
2019-05-06T00:21:09.646Z,13.22
2019-05-06T00:26:13.632Z,13.27
2019-05-06T00:31:20.261Z,13.21
2019-05-06T00:36:23.709Z,13.11
2019-05-06T00:41:27.773Z,13.24
2019-05-06T00:46:29.662Z,13.01
2019-05-06T00:51:33.665Z,13.08
2019-05-06T00:56:35.311Z,13.27
2019-05-06T01:01:37.145Z,13.09
2019-05-06T01:06:39.034Z,13.23
2019-05-06T01:11:41.223Z,13.19
2019-05-06T01:16:43.972Z,13.27
2019-05-06T01:21:45.875Z,13.26
2019-05-06T01:26:47.783Z,13.21
2019-05-06T01:31:49.640Z,13.22
2019-05-06T01:36:51.523Z,13.11
2019-05-06T01:42:07.299Z,12.94
2019-05-06T01:47:09.137Z,13.00
2019-05-06T01:52:10.982Z,12.86
2019-05-06T01:57:13.734Z,12.99
2019-05-06T02:02:15.887Z,12.91
2019-05-06T02:07:17.763Z,12.98
2019-05-06T02:12:19.662Z,12.95
2019-05-06T02:17:23.768Z,12.93
2019-05-06T02:22:45.398Z,13.10
2019-05-06T02:27:47.201Z,12.99
2019-05-06T02:32:50.911Z,12.94
2019-05-06T02:37:55.014Z,12.98
2019-05-06T02:42:56.665Z,13.03
2019-05-06T02:48:05.978Z,13.02
2019-05-06T02:53:07.804Z,13.02
2019-05-06T02:58:09.626Z,13.02
2019-05-06T03:03:14.039Z,13.03
2019-05-06T03:08:15.302Z,12.94
2019-05-06T03:13:17.164Z,12.51
2019-05-06T03:18:19.008Z,12.47
2019-05-06T03:23:28.492Z,12.63
2019-05-06T03:28:33.111Z,12.79
2019-05-06T03:33:50.712Z,12.66
2019-05-06T03:38:37.969Z,12.55
2019-05-06T03:43:39.875Z,12.57
2019-05-06T03:48:44.398Z,12.62
2019-05-06T03:53:47.019Z,12.79
2019-05-06T03:58:53.356Z,12.78
2019-05-06T04:03:57.206Z,12.57
2019-05-06T04:08:58.427Z,12.34
2019-05-06T04:14:02.795Z,12.23
2019-05-06T04:19:24.110Z,12.16
2019-05-06T04:24:46.142Z,12.27
2019-05-06T04:29:48.053Z,12.44
2019-05-06T04:34:53.227Z,12.47
2019-05-06T04:39:54.267Z,12.40
2019-05-06T04:44:56.675Z,12.51
2019-05-06T04:49:58.657Z,12.45
2019-05-06T04:55:03.453Z,12.48
2019-05-06T05:00:05.308Z,12.52
2019-05-06T05:05:07.470Z,12.70
2019-05-06T05:10:20.180Z,12.97
2019-05-06T05:15:36.118Z,13.12
2019-05-06T05:20:44.127Z,13.45
2019-05-06T05:25:43.179Z,14.01
2019-05-06T05:30:45.265Z,14.18
2019-05-06T05:35:47.210Z,14.40
2019-05-06T05:40:49.140Z,14.64
2019-05-06T05:45:52.352Z,14.56
2019-05-06T05:50:55.317Z,14.54
2019-05-06T05:55:57.133Z,13.83
2019-05-06T06:00:59.270Z,13.73
2019-05-06T06:06:03.063Z,13.66
2019-05-06T06:11:09.898Z,13.79
2019-05-06T06:16:13.589Z,14.13
2019-05-06T06:21:22.139Z,14.47
2019-05-06T06:26:22.655Z,14.77
2019-05-06T06:31:26.619Z,14.95
2019-05-06T06:36:36.449Z,14.91
2019-05-06T06:41:38.609Z,15.01
2019-05-06T06:46:42.803Z,15.02
2019-05-06T06:51:44.575Z,14.86
2019-05-06T06:57:06.173Z,14.86
2019-05-06T07:02:05.913Z,14.95
2019-05-06T07:07:08.073Z,14.97
2019-05-06T07:12:13.036Z,15.11
2019-05-06T07:17:13.865Z,15.40
2019-05-06T07:22:15.893Z,16.18
2019-05-06T07:27:19.737Z,16.17
2019-05-06T07:32:23.175Z,15.88
2019-05-06T07:37:25.293Z,16.50
2019-05-06T07:42:28.956Z,17.16
2019-05-06T07:47:44.782Z,18.59
2019-05-06T07:53:05.045Z,18.10
2019-05-06T07:58:07.129Z,17.30
2019-05-06T08:03:09.140Z,16.18
2019-05-06T08:08:12.947Z,15.14
2019-05-06T08:13:15.014Z,15.36
2019-05-06T08:18:19.050Z,15.60
2019-05-06T08:23:25.724Z,15.48
2019-05-06T15:43:12.828Z,13.57
2019-05-06T15:48:57.537Z,13.68
2019-05-06T15:54:02.615Z,13.74
2019-05-06T15:59:04.976Z,13.68
2019-05-06T16:04:06.885Z,13.70
2019-05-06T16:09:08.769Z,13.62
2019-05-06T16:14:12.690Z,13.39
2019-05-06T16:19:15.957Z,12.99
2019-05-06T16:24:23.020Z,12.91
2019-05-06T16:29:36.035Z,12.84
2019-05-06T16:34:38.227Z,12.31
2019-05-06T16:39:40.690Z,12.10
2019-05-06T16:44:45.142Z,11.52
2019-05-06T16:49:46.633Z,11.61
2019-05-06T16:54:48.498Z,11.71
2019-05-06T16:59:52.252Z,11.73
2019-05-06T17:05:05.136Z,11.81
2019-05-06T17:10:07.398Z,11.13
2019-05-06T17:15:09.679Z,10.89
2019-05-06T17:20:12.331Z,10.69
2019-05-06T17:25:14.614Z,10.27
2019-05-06T17:30:33.157Z,9.92
2019-05-06T17:35:34.809Z,9.83
2019-05-06T17:40:36.777Z,9.51
2019-05-06T17:45:43.045Z,9.23
2019-05-06T17:50:46.724Z,9.23
2019-05-06T17:55:48.737Z,9.48
2019-05-06T18:00:52.216Z,9.80
2019-05-06T18:05:54.696Z,10.24
2019-05-06T18:10:58.744Z,10.36
2019-05-06T18:16:03.495Z,10.61
2019-05-06T18:21:05.330Z,10.71
2019-05-06T18:26:07.455Z,10.62
2019-05-06T18:31:09.320Z,10.64
2019-05-06T18:36:13.025Z,10.47
2019-05-06T18:41:16.654Z,10.49
2019-05-06T18:46:18.634Z,10.57
2019-05-06T18:51:22.348Z,10.31
2019-05-06T18:56:24.777Z,9.55
2019-05-06T19:01:28.785Z,9.42
2019-05-06T19:06:32.725Z,9.41
2019-05-06T19:11:34.790Z,9.75
2019-05-06T19:16:48.869Z,9.73
2019-05-06T19:21:42.751Z,9.82
2019-05-06T19:26:44.619Z,9.96
2019-05-06T19:31:48.597Z,10.08
2019-05-06T19:36:52.800Z,9.98
2019-05-06T19:41:55.661Z,10.06
2019-05-06T19:46:57.584Z,10.11
2019-05-06T19:52:03.144Z,10.25
2019-05-06T19:57:05.390Z,10.22
2019-05-06T20:02:07.373Z,9.99
2019-05-06T20:07:17.063Z,10.02
2019-05-06T20:12:23.718Z,9.96
2019-05-06T20:17:25.767Z,10.14
2019-05-06T20:22:27.736Z,9.99
2019-05-06T20:27:29.648Z,9.60
2019-05-06T20:32:32.275Z,9.15
2019-05-06T20:37:34.198Z,9.12
2019-05-06T20:42:36.119Z,9.34
2019-05-06T20:47:38.027Z,9.29
2019-05-06T20:52:42.355Z,9.22
2019-05-06T20:57:43.796Z,9.05
2019-05-06T21:02:45.730Z,8.90
2019-05-06T21:07:47.838Z,8.38
2019-05-06T21:12:49.662Z,7.71
2019-05-06T21:17:51.603Z,7.70
2019-05-06T21:22:53.449Z,7.57
2019-05-06T21:27:55.437Z,7.63
2019-05-06T21:32:57.322Z,7.74
2019-05-06T21:37:59.312Z,7.91
2019-05-06T21:43:02.058Z,8.11
2019-05-06T21:48:04.500Z,8.32
2019-05-06T21:53:06.451Z,8.31
2019-05-06T21:58:08.422Z,8.16
2019-05-06T22:03:13.363Z,8.18
2019-05-06T22:08:15.750Z,8.37
2019-05-06T22:13:17.679Z,8.45
2019-05-06T22:18:19.848Z,7.79
2019-05-06T22:23:22.184Z,7.94
2019-05-06T22:28:24.311Z,7.95
2019-05-06T22:33:26.141Z,7.92
2019-05-06T22:38:28.157Z,8.04
2019-05-06T22:43:30.096Z,8.09
2019-05-06T22:48:32.472Z,7.97
2019-05-06T22:53:35.573Z,7.67
2019-05-06T22:58:37.450Z,7.56
2019-05-06T23:03:39.312Z,7.88
2019-05-06T23:08:43.298Z,7.72
2019-05-06T23:13:48.321Z,7.59
2019-05-06T23:18:52.353Z,7.50
2019-05-06T23:23:54.763Z,7.49
2019-05-06T23:28:56.991Z,7.76
2019-05-06T23:33:59.071Z,8.02
2019-05-06T23:39:39.958Z,8.09
2019-05-06T23:45:19.088Z,8.04
2019-05-06T23:50:59.259Z,8.26
2019-05-06T23:56:38.744Z,8.31
